sensor_id;sensor_type;location;lat;lon;timestamp;pressure;altitude;pressure_sealevel;temperature;humidity
42169;BME280;27838;43.858;25.974;2023-04-06T00:02:06;100797.00;;;7.24;57.04
42169;BME280;27838;43.858;25.974;2023-04-06T00:04:33;100787.47;;;7.23;56.34
42169;BME280;27838;43.858;25.974;2023-04-06T00:06:59;100792.72;;;7.26;56.28
42169;BME280;27838;43.858;25.974;2023-04-06T00:09:26;100780.47;;;7.17;56.20
42169;BME280;27838;43.858;25.974;2023-04-06T00:11:52;100776.94;;;7.12;56.29
42169;BME280;27838;43.858;25.974;2023-04-06T00:14:19;100775.16;;;7.07;56.44
42169;BME280;27838;43.858;25.974;2023-04-06T00:16:45;100771.53;;;6.95;56.55
42169;BME280;27838;43.858;25.974;2023-04-06T00:19:12;100772.44;;;7.00;56.61
42169;BME280;27838;43.858;25.974;2023-04-06T00:21:39;100775.03;;;7.00;56.29
42169;BME280;27838;43.858;25.974;2023-04-06T00:24:05;100763.66;;;6.89;56.89
42169;BME280;27838;43.858;25.974;2023-04-06T00:26:32;100756.75;;;6.91;56.87
42169;BME280;27838;43.858;25.974;2023-04-06T00:28:58;100762.81;;;6.90;56.24
42169;BME280;27838;43.858;25.974;2023-04-06T00:31:25;100762.06;;;6.97;56.50
42169;BME280;27838;43.858;25.974;2023-04-06T00:33:51;100764.66;;;7.00;56.20
42169;BME280;27838;43.858;25.974;2023-04-06T00:36:18;100757.72;;;6.96;56.92
42169;BME280;27838;43.858;25.974;2023-04-06T00:38:45;100753.53;;;7.05;56.12
42169;BME280;27838;43.858;25.974;2023-04-06T00:41:11;100766.53;;;7.08;56.09
42169;BME280;27838;43.858;25.974;2023-04-06T00:43:38;100743.88;;;6.96;56.74
42169;BME280;27838;43.858;25.974;2023-04-06T00:46:05;100746.50;;;6.97;56.34
42169;BME280;27838;43.858;25.974;2023-04-06T00:48:31;100752.56;;;6.98;56.39
42169;BME280;27838;43.858;25.974;2023-04-06T00:50:58;100746.44;;;6.94;56.28
42169;BME280;27838;43.858;25.974;2023-04-06T00:53:25;100749.69;;;6.81;56.35
42169;BME280;27838;43.858;25.974;2023-04-06T00:55:52;100747.16;;;6.84;57.33
42169;BME280;27838;43.858;25.974;2023-04-06T00:58:18;100741.97;;;6.84;56.86
42169;BME280;27838;43.858;25.974;2023-04-06T01:00:45;100751.59;;;6.93;56.74
42169;BME280;27838;43.858;25.974;2023-04-06T01:03:12;100726.41;;;6.83;56.39
42169;BME280;27838;43.858;25.974;2023-04-06T01:05:39;100724.47;;;6.68;56.91
42169;BME280;27838;43.858;25.974;2023-04-06T01:08:07;100737.63;;;6.82;56.96
42169;BME280;27838;43.858;25.974;2023-04-06T01:10:34;100736.81;;;6.86;56.72
42169;BME280;27838;43.858;25.974;2023-04-06T01:13:01;100738.56;;;6.88;56.86
42169;BME280;27838;43.858;25.974;2023-04-06T01:15:28;100737.59;;;6.80;56.96
42169;BME280;27838;43.858;25.974;2023-04-06T01:17:55;100725.53;;;6.82;56.89
42169;BME280;27838;43.858;25.974;2023-04-06T01:20:22;100723.78;;;6.81;57.29
42169;BME280;27838;43.858;25.974;2023-04-06T01:22:48;100729.94;;;6.88;57.30
42169;BME280;27838;43.858;25.974;2023-04-06T01:25:15;100733.38;;;6.88;56.89
42169;BME280;27838;43.858;25.974;2023-04-06T01:27:42;100734.44;;;6.99;56.73
42169;BME280;27838;43.858;25.974;2023-04-06T01:30:09;100723.22;;;6.99;55.96
42169;BME280;27838;43.858;25.974;2023-04-06T01:32:35;100719.88;;;7.08;56.28
42169;BME280;27838;43.858;25.974;2023-04-06T01:35:02;100700.03;;;7.13;55.62
42169;BME280;27838;43.858;25.974;2023-04-06T01:37:29;100706.16;;;7.18;56.33
42169;BME280;27838;43.858;25.974;2023-04-06T01:39:57;100707.19;;;7.28;56.04
42169;BME280;27838;43.858;25.974;2023-04-06T01:42:24;100709.75;;;7.26;55.52
42169;BME280;27838;43.858;25.974;2023-04-06T01:44:51;100694.06;;;7.15;55.60
42169;BME280;27838;43.858;25.974;2023-04-06T01:47:18;100700.03;;;7.13;56.26
42169;BME280;27838;43.858;25.974;2023-04-06T01:49:44;100689.69;;;7.11;56.15
42169;BME280;27838;43.858;25.974;2023-04-06T01:52:11;100697.38;;;7.07;56.29
42169;BME280;27838;43.858;25.974;2023-04-06T01:54:37;100697.16;;;6.91;56.42
42169;BME280;27838;43.858;25.974;2023-04-06T01:57:04;100692.03;;;6.94;56.45
42169;BME280;27838;43.858;25.974;2023-04-06T01:59:31;100679.06;;;6.93;57.10
42169;BME280;27838;43.858;25.974;2023-04-06T02:01:57;100686.97;;;7.04;56.94
42169;BME280;27838;43.858;25.974;2023-04-06T02:04:24;100687.97;;;7.12;56.61
42169;BME280;27838;43.858;25.974;2023-04-06T02:06:51;100684.56;;;7.17;55.80
42169;BME280;27838;43.858;25.974;2023-04-06T02:09:17;100689.88;;;7.25;55.94
42169;BME280;27838;43.858;25.974;2023-04-06T02:11:44;100679.44;;;7.21;55.78
42169;BME280;27838;43.858;25.974;2023-04-06T02:14:11;100678.44;;;7.11;56.27
42169;BME280;27838;43.858;25.974;2023-04-06T02:16:37;100674.09;;;7.08;56.42
42169;BME280;27838;43.858;25.974;2023-04-06T02:19:04;100670.69;;;7.12;56.38
42169;BME280;27838;43.858;25.974;2023-04-06T02:21:31;100665.41;;;7.05;56.93
42169;BME280;27838;43.858;25.974;2023-04-06T02:23:58;100675.00;;;7.12;56.60
42169;BME280;27838;43.858;25.974;2023-04-06T02:26:24;100669.88;;;7.18;56.23
42169;BME280;27838;43.858;25.974;2023-04-06T02:28:51;100658.56;;;7.13;55.76
42169;BME280;27838;43.858;25.974;2023-04-06T02:31:17;100665.44;;;7.09;56.45
42169;BME280;27838;43.858;25.974;2023-04-06T02:33:44;100661.97;;;7.07;56.44
42169;BME280;27838;43.858;25.974;2023-04-06T02:36:11;100662.91;;;7.14;56.17
42169;BME280;27838;43.858;25.974;2023-04-06T02:38:37;100663.94;;;7.25;56.23
42169;BME280;27838;43.858;25.974;2023-04-06T02:41:04;100659.50;;;7.15;56.43
42169;BME280;27838;43.858;25.974;2023-04-06T02:43:31;100655.19;;;7.17;56.20
42169;BME280;27838;43.858;25.974;2023-04-06T02:45:57;100660.38;;;7.17;56.17
42169;BME280;27838;43.858;25.974;2023-04-06T02:48:24;100662.09;;;7.15;56.62
42169;BME280;27838;43.858;25.974;2023-04-06T02:50:50;100656.84;;;7.12;56.55
42169;BME280;27838;43.858;25.974;2023-04-06T02:53:19;100655.31;;;7.26;56.13
42169;BME280;27838;43.858;25.974;2023-04-06T02:55:46;100657.03;;;7.26;56.04
42169;BME280;27838;43.858;25.974;2023-04-06T02:58:13;100662.19;;;7.24;56.38
42169;BME280;27838;43.858;25.974;2023-04-06T03:00:39;100660.38;;;7.17;56.24
42169;BME280;27838;43.858;25.974;2023-04-06T03:03:06;100662.16;;;7.21;56.42
42169;BME280;27838;43.858;25.974;2023-04-06T03:05:32;100660.44;;;7.20;56.37
42169;BME280;27838;43.858;25.974;2023-04-06T03:07:59;100660.31;;;7.14;56.44
42169;BME280;27838;43.858;25.974;2023-04-06T03:10:26;100663.03;;;7.20;56.79
42169;BME280;27838;43.858;25.974;2023-04-06T03:12:52;100656.13;;;7.22;56.45
42169;BME280;27838;43.858;25.974;2023-04-06T03:15:19;100660.44;;;7.23;56.55
42169;BME280;27838;43.858;25.974;2023-04-06T03:17:46;100663.03;;;7.20;56.47
42169;BME280;27838;43.858;25.974;2023-04-06T03:20:12;100655.31;;;7.26;56.73
42169;BME280;27838;43.858;25.974;2023-04-06T03:22:39;100665.88;;;7.42;55.88
42169;BME280;27838;43.858;25.974;2023-04-06T03:25:05;100645.00;;;7.31;56.04
42169;BME280;27838;43.858;25.974;2023-04-06T03:27:32;100652.88;;;7.40;55.94
42169;BME280;27838;43.858;25.974;2023-04-06T03:29:59;100645.97;;;7.42;56.66
42169;BME280;27838;43.858;25.974;2023-04-06T03:32:25;100658.22;;;7.52;56.79
42169;BME280;27838;43.858;25.974;2023-04-06T03:34:52;100661.69;;;7.56;56.12
42169;BME280;27838;43.858;25.974;2023-04-06T03:37:18;100662.56;;;7.55;55.95
42169;BME280;27838;43.858;25.974;2023-04-06T03:39:45;100657.41;;;7.58;56.04
42169;BME280;27838;43.858;25.974;2023-04-06T03:42:12;100657.38;;;7.55;55.55
42169;BME280;27838;43.858;25.974;2023-04-06T03:44:38;100662.59;;;7.58;56.84
42169;BME280;27838;43.858;25.974;2023-04-06T03:47:05;100653.91;;;7.56;56.26
42169;BME280;27838;43.858;25.974;2023-04-06T03:49:31;100649.66;;;7.61;56.16
42169;BME280;27838;43.858;25.974;2023-04-06T03:51:58;100650.47;;;7.57;56.23
42169;BME280;27838;43.858;25.974;2023-04-06T03:54:25;100643.50;;;7.50;56.82
42169;BME280;27838;43.858;25.974;2023-04-06T03:56:51;100647.00;;;7.53;56.94
42169;BME280;27838;43.858;25.974;2023-04-06T03:59:18;100649.59;;;7.56;56.46
42169;BME280;27838;43.858;25.974;2023-04-06T04:01:44;100648.69;;;7.53;56.71
42169;BME280;27838;43.858;25.974;2023-04-06T04:04:11;100656.34;;;7.42;57.23
42169;BME280;27838;43.858;25.974;2023-04-06T04:06:37;100649.34;;;7.33;57.72
42169;BME280;27838;43.858;25.974;2023-04-06T04:09:04;100659.84;;;7.43;57.94
42169;BME280;27838;43.858;25.974;2023-04-06T04:11:31;100657.31;;;7.49;58.19
42169;BME280;27838;43.858;25.974;2023-04-06T04:13:57;100658.97;;;7.44;57.86
42169;BME280;27838;43.858;25.974;2023-04-06T04:16:24;100650.34;;;7.45;58.16
42169;BME280;27838;43.858;25.974;2023-04-06T04:18:50;100659.97;;;7.53;57.84
42169;BME280;27838;43.858;25.974;2023-04-06T04:21:17;100665.19;;;7.58;57.89
42169;BME280;27838;43.858;25.974;2023-04-06T04:23:43;100652.22;;;7.58;57.53
42169;BME280;27838;43.858;25.974;2023-04-06T04:26:10;100658.34;;;7.65;57.89
42169;BME280;27838;43.858;25.974;2023-04-06T04:28:37;100659.09;;;7.56;58.02
42169;BME280;27838;43.858;25.974;2023-04-06T04:31:03;100666.84;;;7.50;58.25
42169;BME280;27838;43.858;25.974;2023-04-06T04:33:30;100663.38;;;7.51;58.34
42169;BME280;27838;43.858;25.974;2023-04-06T04:35:57;100666.06;;;7.57;58.06
42169;BME280;27838;43.858;25.974;2023-04-06T04:38:23;100667.81;;;7.61;59.23
42169;BME280;27838;43.858;25.974;2023-04-06T04:40:50;100664.38;;;7.62;57.83
42169;BME280;27838;43.858;25.974;2023-04-06T04:43:16;100666.09;;;7.60;58.43
42169;BME280;27838;43.858;25.974;2023-04-06T04:45:43;100660.81;;;7.54;57.83
42169;BME280;27838;43.858;25.974;2023-04-06T04:48:09;100669.47;;;7.56;58.10
42169;BME280;27838;43.858;25.974;2023-04-06T04:50:36;100670.44;;;7.64;58.09
42169;BME280;27838;43.858;25.974;2023-04-06T04:53:03;100671.34;;;7.66;58.47
42169;BME280;27838;43.858;25.974;2023-04-06T04:55:31;100673.06;;;7.66;58.55
42169;BME280;27838;43.858;25.974;2023-04-06T04:57:58;100670.44;;;7.64;58.26
42169;BME280;27838;43.858;25.974;2023-04-06T05:00:24;100668.69;;;7.63;58.52
42169;BME280;27838;43.858;25.974;2023-04-06T05:02:51;100672.22;;;7.68;58.44
42169;BME280;27838;43.858;25.974;2023-04-06T05:05:17;100674.84;;;7.71;58.03
42169;BME280;27838;43.858;25.974;2023-04-06T05:07:44;100673.22;;;7.80;58.37
42169;BME280;27838;43.858;25.974;2023-04-06T05:10:11;100672.38;;;7.84;57.93
42169;BME280;27838;43.858;25.974;2023-04-06T05:12:37;100672.47;;;7.93;58.30
42169;BME280;27838;43.858;25.974;2023-04-06T05:15:04;100672.47;;;7.94;57.68
42169;BME280;27838;43.858;25.974;2023-04-06T05:17:31;100666.47;;;7.97;57.86
42169;BME280;27838;43.858;25.974;2023-04-06T05:19:58;100669.97;;;8.02;57.42
42169;BME280;27838;43.858;25.974;2023-04-06T05:22:24;100657.81;;;7.95;57.54
42169;BME280;27838;43.858;25.974;2023-04-06T05:24:51;100657.00;;;8.01;57.21
42169;BME280;27838;43.858;25.974;2023-04-06T05:27:18;100660.50;;;8.09;56.91
42169;BME280;27838;43.858;25.974;2023-04-06T05:29:44;100656.16;;;8.06;57.28
42169;BME280;27838;43.858;25.974;2023-04-06T05:32:11;100643.19;;;8.06;57.42
42169;BME280;27838;43.858;25.974;2023-04-06T05:34:37;100659.59;;;8.05;57.59
42169;BME280;27838;43.858;25.974;2023-04-06T05:37:04;100646.56;;;7.96;57.41
42169;BME280;27838;43.858;25.974;2023-04-06T05:39:31;100656.09;;;7.99;57.27
42169;BME280;27838;43.858;25.974;2023-04-06T05:41:57;100651.81;;;8.02;57.92
42169;BME280;27838;43.858;25.974;2023-04-06T05:44:24;100654.41;;;8.02;57.99
42169;BME280;27838;43.858;25.974;2023-04-06T05:46:50;100643.94;;;7.96;58.33
42169;BME280;27838;43.858;25.974;2023-04-06T05:49:17;100648.25;;;7.94;57.86
42169;BME280;27838;43.858;25.974;2023-04-06T05:51:43;100647.38;;;7.92;58.50
42169;BME280;27838;43.858;25.974;2023-04-06T05:54:10;100648.19;;;7.88;58.21
42169;BME280;27838;43.858;25.974;2023-04-06T05:56:37;100648.22;;;7.89;57.72
42169;BME280;27838;43.858;25.974;2023-04-06T05:59:03;100641.34;;;7.96;58.37
42169;BME280;27838;43.858;25.974;2023-04-06T06:01:30;100646.63;;;8.04;58.12
42169;BME280;27838;43.858;25.974;2023-04-06T06:03:56;100637.06;;;8.01;57.49
42169;BME280;27838;43.858;25.974;2023-04-06T06:06:23;100642.28;;;8.03;58.01
42169;BME280;27838;43.858;25.974;2023-04-06T06:08:50;100635.31;;;7.97;57.53
42169;BME280;27838;43.858;25.974;2023-04-06T06:11:16;100637.06;;;8.01;57.60
42169;BME280;27838;43.858;25.974;2023-04-06T06:13:43;100640.47;;;7.92;57.61
42169;BME280;27838;43.858;25.974;2023-04-06T06:16:10;100637.03;;;7.98;57.92
42169;BME280;27838;43.858;25.974;2023-04-06T06:18:36;100636.25;;;8.02;57.56
42169;BME280;27838;43.858;25.974;2023-04-06T06:21:03;100624.16;;;8.07;57.51
42169;BME280;27838;43.858;25.974;2023-04-06T06:23:30;100631.97;;;8.10;57.06
42169;BME280;27838;43.858;25.974;2023-04-06T06:25:56;100633.72;;;8.11;57.22
42169;BME280;27838;43.858;25.974;2023-04-06T06:28:23;100626.75;;;8.06;56.82
42169;BME280;27838;43.858;25.974;2023-04-06T06:30:51;100636.22;;;8.01;57.17
42169;BME280;27838;43.858;25.974;2023-04-06T06:33:18;100633.59;;;7.99;56.93
42169;BME280;27838;43.858;25.974;2023-04-06T06:35:44;100625.75;;;7.94;57.06
42169;BME280;27838;43.858;25.974;2023-04-06T06:38:11;100642.22;;;7.97;57.19
42169;BME280;27838;43.858;25.974;2023-04-06T06:40:39;100636.25;;;8.04;57.43
42169;BME280;27838;43.858;25.974;2023-04-06T06:43:06;100645.81;;;8.09;57.02
42169;BME280;27838;43.858;25.974;2023-04-06T06:45:32;100644.88;;;8.03;57.12
42169;BME280;27838;43.858;25.974;2023-04-06T06:47:59;100643.22;;;8.09;57.15
42169;BME280;27838;43.858;25.974;2023-04-06T06:50:27;100643.25;;;8.12;57.28
42169;BME280;27838;43.858;25.974;2023-04-06T06:52:53;100637.25;;;8.20;56.76
42169;BME280;27838;43.858;25.974;2023-04-06T06:55:20;100635.47;;;8.16;56.90
42169;BME280;27838;43.858;25.974;2023-04-06T06:57:47;100632.06;;;8.23;56.76
42169;BME280;27838;43.858;25.974;2023-04-06T07:00:14;100631.25;;;8.27;57.00
42169;BME280;27838;43.858;25.974;2023-04-06T07:02:40;100635.59;;;8.31;56.68
42169;BME280;27838;43.858;25.974;2023-04-06T07:05:07;100638.25;;;8.40;56.45
42169;BME280;27838;43.858;25.974;2023-04-06T07:07:34;100640.94;;;8.46;56.60
42169;BME280;27838;43.858;25.974;2023-04-06T07:10:01;100640.97;;;8.53;55.97
42169;BME280;27838;43.858;25.974;2023-04-06T07:12:27;100635.00;;;8.60;55.41
42169;BME280;27838;43.858;25.974;2023-04-06T07:14:54;100628.97;;;8.65;54.96
42169;BME280;27838;43.858;25.974;2023-04-06T07:17:21;100642.09;;;8.88;55.00
42169;BME280;27838;43.858;25.974;2023-04-06T07:19:48;100634.31;;;8.96;54.29
42169;BME280;27838;43.858;25.974;2023-04-06T07:22:14;100638.69;;;9.00;54.67
42169;BME280;27838;43.858;25.974;2023-04-06T07:24:41;100630.88;;;8.97;54.27
42169;BME280;27838;43.858;25.974;2023-04-06T07:27:08;100630.84;;;8.96;54.47
42169;BME280;27838;43.858;25.974;2023-04-06T07:29:34;100630.88;;;8.97;54.37
42169;BME280;27838;43.858;25.974;2023-04-06T07:32:01;100634.38;;;9.10;53.92
42169;BME280;27838;43.858;25.974;2023-04-06T07:34:27;100637.03;;;9.16;53.68
42169;BME280;27838;43.858;25.974;2023-04-06T07:36:54;100636.13;;;9.17;53.27
42169;BME280;27838;43.858;25.974;2023-04-06T07:39:21;100631.84;;;9.18;53.15
42169;BME280;27838;43.858;25.974;2023-04-06T07:41:48;100630.94;;;9.19;53.40
42169;BME280;27838;43.858;25.974;2023-04-06T07:44:15;100640.53;;;9.23;53.46
42169;BME280;27838;43.858;25.974;2023-04-06T07:46:41;100636.13;;;9.17;53.69
42169;BME280;27838;43.858;25.974;2023-04-06T07:49:08;100639.66;;;9.25;53.32
42169;BME280;27838;43.858;25.974;2023-04-06T07:51:38;100642.31;;;9.41;53.11
42169;BME280;27838;43.858;25.974;2023-04-06T07:54:05;100636.25;;;9.40;52.95
42169;BME280;27838;43.858;25.974;2023-04-06T07:56:32;100632.75;;;9.31;52.69
42169;BME280;27838;43.858;25.974;2023-04-06T07:58:58;100634.50;;;9.38;52.99
42169;BME280;27838;43.858;25.974;2023-04-06T08:01:26;100630.22;;;9.48;52.36
42169;BME280;27838;43.858;25.974;2023-04-06T08:03:54;100637.19;;;9.59;52.31
42169;BME280;27838;43.858;25.974;2023-04-06T08:06:21;100638.03;;;9.66;52.22
42169;BME280;27838;43.858;25.974;2023-04-06T08:08:48;100636.34;;;9.76;51.87
42169;BME280;27838;43.858;25.974;2023-04-06T08:11:15;100627.69;;;9.77;51.52
42169;BME280;27838;43.858;25.974;2023-04-06T08:13:41;100638.94;;;9.83;51.93
42169;BME280;27838;43.858;25.974;2023-04-06T08:16:08;100637.25;;;10.09;51.54
42169;BME280;27838;43.858;25.974;2023-04-06T08:18:35;100634.66;;;10.12;51.55
42169;BME280;27838;43.858;25.974;2023-04-06T08:21:01;100622.50;;;10.03;51.63
42169;BME280;27838;43.858;25.974;2023-04-06T08:23:28;100629.44;;;10.09;51.79
42169;BME280;27838;43.858;25.974;2023-04-06T08:25:54;100632.91;;;10.11;51.57
42169;BME280;27838;43.858;25.974;2023-04-06T08:28:21;100628.56;;;10.17;51.87
42169;BME280;27838;43.858;25.974;2023-04-06T08:30:48;100622.50;;;10.29;50.65
42169;BME280;27838;43.858;25.974;2023-04-06T08:33:15;100627.72;;;10.38;50.60
42169;BME280;27838;43.858;25.974;2023-04-06T08:35:42;100621.66;;;10.36;50.53
42169;BME280;27838;43.858;25.974;2023-04-06T08:38:08;100629.47;;;10.46;50.89
42169;BME280;27838;43.858;25.974;2023-04-06T08:40:39;100629.47;;;10.36;50.77
42169;BME280;27838;43.858;25.974;2023-04-06T08:43:09;100631.22;;;10.34;50.74
42169;BME280;27838;43.858;25.974;2023-04-06T08:45:37;100636.44;;;10.31;51.18
42169;BME280;27838;43.858;25.974;2023-04-06T08:48:04;100621.63;;;10.24;50.96
42169;BME280;27838;43.858;25.974;2023-04-06T08:50:32;100628.56;;;10.28;50.83
42169;BME280;27838;43.858;25.974;2023-04-06T08:53:00;100634.69;;;10.47;50.74
42169;BME280;27838;43.858;25.974;2023-04-06T08:55:27;100626.84;;;10.53;49.79
42169;BME280;27838;43.858;25.974;2023-04-06T08:57:54;100630.28;;;10.69;49.82
42169;BME280;27838;43.858;25.974;2023-04-06T09:00:22;100626.75;;;10.92;48.86
42169;BME280;27838;43.858;25.974;2023-04-06T09:02:49;100625.88;;;10.93;48.67
42169;BME280;27838;43.858;25.974;2023-04-06T09:05:16;100633.66;;;11.08;48.45
42169;BME280;27838;43.858;25.974;2023-04-06T09:07:43;100632.78;;;11.15;47.69
42169;BME280;27838;43.858;25.974;2023-04-06T09:10:10;100630.16;;;11.20;48.31
42169;BME280;27838;43.858;25.974;2023-04-06T09:12:37;100637.88;;;11.40;48.55
42169;BME280;27838;43.858;25.974;2023-04-06T09:15:04;100630.84;;;11.55;47.04
42169;BME280;27838;43.858;25.974;2023-04-06T09:17:32;100627.28;;;11.66;46.42
42169;BME280;27838;43.858;25.974;2023-04-06T09:20:02;100628.22;;;11.61;46.78
42169;BME280;27838;43.858;25.974;2023-04-06T09:22:39;100623.91;;;11.53;46.77
42169;BME280;27838;43.858;25.974;2023-04-06T09:25:08;100628.31;;;11.39;46.76
42169;BME280;27838;43.858;25.974;2023-04-06T09:27:37;100613.59;;;11.29;47.01
42169;BME280;27838;43.858;25.974;2023-04-06T09:30:10;100624.84;;;11.37;47.01
42169;BME280;27838;43.858;25.974;2023-04-06T09:32:49;100625.75;;;11.27;46.66
42169;BME280;27838;43.858;25.974;2023-04-06T09:35:17;100637.97;;;11.17;46.67
42169;BME280;27838;43.858;25.974;2023-04-06T09:37:46;100629.31;;;11.10;46.88
42169;BME280;27838;43.858;25.974;2023-04-06T09:40:13;100630.16;;;11.12;46.71
42169;BME280;27838;43.858;25.974;2023-04-06T09:42:44;100626.72;;;11.04;47.18
42169;BME280;27838;43.858;25.974;2023-04-06T09:45:11;100624.13;;;10.96;47.58
42169;BME280;27838;43.858;25.974;2023-04-06T09:47:39;100624.13;;;10.95;47.58
42169;BME280;27838;43.858;25.974;2023-04-06T09:50:07;100623.28;;;10.93;47.88
42169;BME280;27838;43.858;25.974;2023-04-06T09:55:12;100630.22;;;11.05;47.63
42169;BME280;27838;43.858;25.974;2023-04-06T10:00:17;100624.97;;;11.08;47.61
42169;BME280;27838;43.858;25.974;2023-04-06T10:03:00;100618.00;;;11.10;47.93
42169;BME280;27838;43.858;25.974;2023-04-06T10:08:11;100622.22;;;11.43;47.13
42169;BME280;27838;43.858;25.974;2023-04-06T10:10:38;100618.63;;;11.60;45.97
42169;BME280;27838;43.858;25.974;2023-04-06T10:13:05;100611.63;;;11.71;46.37
42169;BME280;27838;43.858;25.974;2023-04-06T10:15:33;100598.56;;;11.73;45.91
42169;BME280;27838;43.858;25.974;2023-04-06T10:18:01;100608.94;;;11.76;46.42
42169;BME280;27838;43.858;25.974;2023-04-06T10:20:51;100608.06;;;11.81;45.08
42169;BME280;27838;43.858;25.974;2023-04-06T10:23:27;100616.72;;;11.93;45.61
42169;BME280;27838;43.858;25.974;2023-04-06T10:25:57;100608.81;;;12.00;44.42
42169;BME280;27838;43.858;25.974;2023-04-06T10:28:24;100599.16;;;12.10;44.07
42169;BME280;27838;43.858;25.974;2023-04-06T10:30:59;100597.22;;;12.34;44.01
42169;BME280;27838;43.858;25.974;2023-04-06T10:33:28;100596.97;;;12.60;44.32
42169;BME280;27838;43.858;25.974;2023-04-06T10:35:54;100606.25;;;12.87;44.14
42169;BME280;27838;43.858;25.974;2023-04-06T10:38:21;100593.81;;;13.08;42.69
42169;BME280;27838;43.858;25.974;2023-04-06T10:41:07;100594.50;;;13.22;41.96
42169;BME280;27838;43.858;25.974;2023-04-06T10:43:36;100570.94;;;13.22;41.44
42169;BME280;27838;43.858;25.974;2023-04-06T10:46:05;100590.91;;;13.29;41.12
42169;BME280;27838;43.858;25.974;2023-04-06T10:48:47;100579.72;;;13.18;40.73
42169;BME280;27838;43.858;25.974;2023-04-06T10:51:17;100594.31;;;13.37;40.52
42169;BME280;27838;43.858;25.974;2023-04-06T10:53:45;100583.75;;;13.44;41.23
42169;BME280;27838;43.858;25.974;2023-04-06T10:56:17;100586.53;;;13.31;40.65
42169;BME280;27838;43.858;25.974;2023-04-06T10:58:46;100577.13;;;13.16;40.57
42169;BME280;27838;43.858;25.974;2023-04-06T11:01:17;100581.53;;;13.13;40.81
42169;BME280;27838;43.858;25.974;2023-04-06T11:03:51;100579.78;;;13.12;40.84
42169;BME280;27838;43.858;25.974;2023-04-06T11:06:26;100561.59;;;13.02;40.42
42169;BME280;27838;43.858;25.974;2023-04-06T11:08:54;100572.13;;;12.96;40.47
42169;BME280;27838;43.858;25.974;2023-04-06T11:11:23;100575.75;;;12.86;40.88
42169;BME280;27838;43.858;25.974;2023-04-06T11:13:58;100579.28;;;12.82;41.16
42169;BME280;27838;43.858;25.974;2023-04-06T11:16:28;100582.84;;;12.75;40.92
42169;BME280;27838;43.858;25.974;2023-04-06T11:18:56;100569.94;;;12.59;40.75
42169;BME280;27838;43.858;25.974;2023-04-06T11:21:38;100575.16;;;12.61;41.44
42169;BME280;27838;43.858;25.974;2023-04-06T11:24:11;100576.09;;;12.54;41.49
42169;BME280;27838;43.858;25.974;2023-04-06T11:26:49;100570.91;;;12.49;41.66
42169;BME280;27838;43.858;25.974;2023-04-06T11:29:21;100551.88;;;12.38;41.67
42169;BME280;27838;43.858;25.974;2023-04-06T11:31:49;100567.47;;;12.44;41.97
42169;BME280;27838;43.858;25.974;2023-04-06T11:34:21;100576.16;;;12.49;42.41
42169;BME280;27838;43.858;25.974;2023-04-06T11:36:53;100560.59;;;12.37;41.56
42169;BME280;27838;43.858;25.974;2023-04-06T11:39:23;100565.88;;;12.34;41.90
42169;BME280;27838;43.858;25.974;2023-04-06T11:41:52;100552.84;;;12.27;42.22
42169;BME280;27838;43.858;25.974;2023-04-06T11:44:36;100562.38;;;12.32;42.79
42169;BME280;27838;43.858;25.974;2023-04-06T11:47:05;100557.91;;;12.46;42.69
42169;BME280;27838;43.858;25.974;2023-04-06T11:49:33;100553.41;;;12.57;41.51
42169;BME280;27838;43.858;25.974;2023-04-06T11:52:01;100559.25;;;12.81;41.57
42169;BME280;27838;43.858;25.974;2023-04-06T11:54:35;100556.38;;;13.02;41.33
42169;BME280;27838;43.858;25.974;2023-04-06T11:57:03;100547.50;;;13.13;40.90
42169;BME280;27838;43.858;25.974;2023-04-06T11:59:33;100538.72;;;13.17;40.82
42169;BME280;27838;43.858;25.974;2023-04-06T12:02:01;100545.28;;;13.49;40.68
42169;BME280;27838;43.858;25.974;2023-04-06T12:04:28;100541.41;;;13.74;40.19
42169;BME280;27838;43.858;25.974;2023-04-06T12:06:55;100548.22;;;13.86;39.71
42169;BME280;27838;43.858;25.974;2023-04-06T12:09:22;100541.13;;;13.93;39.10
42169;BME280;27838;43.858;25.974;2023-04-06T12:11:48;100539.22;;;14.01;38.92
42169;BME280;27838;43.858;25.974;2023-04-06T12:14:15;100542.53;;;14.12;38.51
42169;BME280;27838;43.858;25.974;2023-04-06T12:16:42;100537.34;;;14.09;38.87
42169;BME280;27838;43.858;25.974;2023-04-06T12:19:09;100539.00;;;14.13;38.93
42169;BME280;27838;43.858;25.974;2023-04-06T12:21:36;100536.50;;;14.07;38.24
42169;BME280;27838;43.858;25.974;2023-04-06T12:24:04;100536.16;;;13.74;37.95
42169;BME280;27838;43.858;25.974;2023-04-06T12:26:31;100536.31;;;13.65;38.96
42169;BME280;27838;43.858;25.974;2023-04-06T12:29:01;100538.09;;;13.63;38.63
42169;BME280;27838;43.858;25.974;2023-04-06T12:31:33;100536.34;;;13.62;38.81
42169;BME280;27838;43.858;25.974;2023-04-06T12:34:01;100534.50;;;13.70;38.51
42169;BME280;27838;43.858;25.974;2023-04-06T12:36:28;100524.06;;;13.67;38.34
42169;BME280;27838;43.858;25.974;2023-04-06T12:38:55;100534.53;;;13.69;38.60
42169;BME280;27838;43.858;25.974;2023-04-06T12:41:21;100517.00;;;13.72;38.81
42169;BME280;27838;43.858;25.974;2023-04-06T12:43:49;100529.09;;;13.79;38.97
42169;BME280;27838;43.858;25.974;2023-04-06T12:46:15;100516.75;;;13.88;39.06
42169;BME280;27838;43.858;25.974;2023-04-06T12:48:42;100516.81;;;13.83;38.70
42169;BME280;27838;43.858;25.974;2023-04-06T12:51:09;100519.19;;;13.98;38.74
42169;BME280;27838;43.858;25.974;2023-04-06T12:53:36;100524.16;;;14.14;38.73
42169;BME280;27838;43.858;25.974;2023-04-06T12:56:11;100518.75;;;14.23;37.96